sensor_id;sensor_type;location;lat;lon;timestamp;pressure;altitude;pressure_sealevel;temperature;humidity
47706;BME280;33471;52.104;1.318;2023-01-31T00:01:30;102232.09;;;5.99;45.97
47706;BME280;33471;52.104;1.318;2023-01-31T00:04:00;102230.46;;;4.80;49.13
47706;BME280;33471;52.104;1.318;2023-01-31T00:06:29;102224.55;;;4.88;48.31
47706;BME280;33471;52.104;1.318;2023-01-31T00:08:58;102227.77;;;5.67;47.10
47706;BME280;33471;52.104;1.318;2023-01-31T00:11:27;102218.27;;;5.97;46.08
47706;BME280;33471;52.104;1.318;2023-01-31T00:13:57;102217.19;;;5.35;46.93
47706;BME280;33471;52.104;1.318;2023-01-31T00:16:24;102219.82;;;4.26;50.56
47706;BME280;33471;52.104;1.318;2023-01-31T00:18:52;102216.31;;;5.16;48.31
47706;BME280;33471;52.104;1.318;2023-01-31T00:21:21;102210.32;;;4.58;49.55
47706;BME280;33471;52.104;1.318;2023-01-31T00:23:49;102223.87;;;4.28;50.98
47706;BME280;33471;52.104;1.318;2023-01-31T00:26:19;102233.63;;;4.36;51.22
47706;BME280;33471;52.104;1.318;2023-01-31T00:28:48;102220.40;;;4.73;49.55
47706;BME280;33471;52.104;1.318;2023-01-31T00:31:16;102216.15;;;4.87;49.47
47706;BME280;33471;52.104;1.318;2023-01-31T00:33:45;102223.36;;;4.43;49.86
47706;BME280;33471;52.104;1.318;2023-01-31T00:36:15;102212.53;;;5.01;49.72
47706;BME280;33471;52.104;1.318;2023-01-31T00:38:46;102199.17;;;4.47;49.62
47706;BME280;33471;52.104;1.318;2023-01-31T00:41:14;102194.28;;;3.57;51.85
47706;BME280;33471;52.104;1.318;2023-01-31T00:43:41;102194.41;;;3.94;51.70
47706;BME280;33471;52.104;1.318;2023-01-31T00:46:08;102192.38;;;4.45;50.14
47706;BME280;33471;52.104;1.318;2023-01-31T00:48:36;102191.79;;;4.37;50.18
47706;BME280;33471;52.104;1.318;2023-01-31T00:51:04;102190.65;;;4.66;50.02
47706;BME280;33471;52.104;1.318;2023-01-31T00:53:31;102180.46;;;4.45;50.09
47706;BME280;33471;52.104;1.318;2023-01-31T00:56:02;102163.75;;;4.44;50.27
47706;BME280;33471;52.104;1.318;2023-01-31T00:58:30;102151.59;;;5.73;47.95
47706;BME280;33471;52.104;1.318;2023-01-31T01:01:05;102143.63;;;5.61;48.05
47706;BME280;33471;52.104;1.318;2023-01-31T01:03:33;102135.26;;;5.79;47.43
47706;BME280;33471;52.104;1.318;2023-01-31T01:06:00;102134.98;;;4.89;49.12
47706;BME280;33471;52.104;1.318;2023-01-31T01:08:28;102141.29;;;5.20;48.95
47706;BME280;33471;52.104;1.318;2023-01-31T01:11:02;102144.66;;;5.11;49.00
47706;BME280;33471;52.104;1.318;2023-01-31T01:13:30;102148.69;;;5.38;48.96
47706;BME280;33471;52.104;1.318;2023-01-31T01:15:57;102152.34;;;5.76;47.96
47706;BME280;33471;52.104;1.318;2023-01-31T01:18:29;102144.65;;;5.25;48.82
47706;BME280;33471;52.104;1.318;2023-01-31T01:21:04;102139.30;;;5.52;48.62
47706;BME280;33471;52.104;1.318;2023-01-31T01:23:32;102142.87;;;5.91;47.68
47706;BME280;33471;52.104;1.318;2023-01-31T01:25:59;102139.03;;;4.52;50.28
47706;BME280;33471;52.104;1.318;2023-01-31T01:28:26;102143.03;;;4.79;51.02
47706;BME280;33471;52.104;1.318;2023-01-31T01:30:53;102137.78;;;4.65;50.62
47706;BME280;33471;52.104;1.318;2023-01-31T01:33:20;102144.51;;;4.44;51.19
47706;BME280;33471;52.104;1.318;2023-01-31T01:35:47;102156.91;;;4.82;50.58
47706;BME280;33471;52.104;1.318;2023-01-31T01:38:15;102142.85;;;4.71;50.23
47706;BME280;33471;52.104;1.318;2023-01-31T01:40:42;102129.30;;;5.46;48.77
47706;BME280;33471;52.104;1.318;2023-01-31T01:43:10;102128.55;;;6.04;47.70
47706;BME280;33471;52.104;1.318;2023-01-31T01:45:37;102120.71;;;5.75;48.44
47706;BME280;33471;52.104;1.318;2023-01-31T01:48:06;102122.91;;;6.57;47.12
47706;BME280;33471;52.104;1.318;2023-01-31T01:50:35;102103.69;;;6.56;46.57
47706;BME280;33471;52.104;1.318;2023-01-31T01:53:09;102107.82;;;4.95;50.05
47706;BME280;33471;52.104;1.318;2023-01-31T01:55:40;102113.65;;;4.29;51.37
47706;BME280;33471;52.104;1.318;2023-01-31T01:58:13;102117.49;;;4.08;52.44
47706;BME280;33471;52.104;1.318;2023-01-31T02:00:42;102115.45;;;4.53;50.91
47706;BME280;33471;52.104;1.318;2023-01-31T02:03:11;102108.81;;;5.33;50.41
47706;BME280;33471;52.104;1.318;2023-01-31T02:05:42;102109.72;;;5.26;49.30
47706;BME280;33471;52.104;1.318;2023-01-31T02:08:12;102109.98;;;6.22;47.83
47706;BME280;33471;52.104;1.318;2023-01-31T02:10:46;102106.33;;;5.77;47.53
47706;BME280;33471;52.104;1.318;2023-01-31T02:13:15;102097.42;;;5.78;48.26
47706;BME280;33471;52.104;1.318;2023-01-31T02:15:42;102091.17;;;4.55;50.60
47706;BME280;33471;52.104;1.318;2023-01-31T02:18:11;102089.64;;;4.52;51.62
47706;BME280;33471;52.104;1.318;2023-01-31T02:22:11;102092.37;;;6.39;49.99
47706;BME280;33471;52.104;1.318;2023-01-31T02:25:46;102092.26;;;5.97;50.67
47706;BME280;33471;52.104;1.318;2023-01-31T02:29:28;102093.54;;;5.48;51.38
47706;BME280;33471;52.104;1.318;2023-01-31T02:32:48;102079.62;;;5.60;50.53
47706;BME280;33471;52.104;1.318;2023-01-31T02:35:29;102078.70;;;5.33;50.97
47706;BME280;33471;52.104;1.318;2023-01-31T02:38:08;102083.77;;;3.60;52.75
47706;BME280;33471;52.104;1.318;2023-01-31T02:40:46;102079.58;;;4.48;52.61
47706;BME280;33471;52.104;1.318;2023-01-31T02:43:20;102080.26;;;4.33;53.15
47706;BME280;33471;52.104;1.318;2023-01-31T02:45:54;102084.98;;;4.66;52.53
47706;BME280;33471;52.104;1.318;2023-01-31T02:48:34;102083.04;;;5.70;49.69
47706;BME280;33471;52.104;1.318;2023-01-31T02:51:09;102081.63;;;6.17;48.79
47706;BME280;33471;52.104;1.318;2023-01-31T02:53:44;102074.77;;;5.77;48.80
47706;BME280;33471;52.104;1.318;2023-01-31T02:56:17;102070.25;;;5.22;50.07
47706;BME280;33471;52.104;1.318;2023-01-31T03:01:34;102066.18;;;6.25;48.70
47706;BME280;33471;52.104;1.318;2023-01-31T03:04:04;102060.68;;;5.89;49.05
47706;BME280;33471;52.104;1.318;2023-01-31T03:07:06;102055.75;;;5.67;51.27
47706;BME280;33471;52.104;1.318;2023-01-31T03:09:38;102054.77;;;4.65;52.65
47706;BME280;33471;52.104;1.318;2023-01-31T03:12:22;102054.03;;;5.04;51.08
47706;BME280;33471;52.104;1.318;2023-01-31T03:15:04;102065.72;;;6.21;48.17
47706;BME280;33471;52.104;1.318;2023-01-31T03:17:42;102057.94;;;4.83;51.03
47706;BME280;33471;52.104;1.318;2023-01-31T03:20:20;102050.64;;;5.15;51.08
47706;BME280;33471;52.104;1.318;2023-01-31T03:22:50;102048.00;;;5.47;50.47
47706;BME280;33471;52.104;1.318;2023-01-31T03:25:23;102042.38;;;4.63;51.72
47706;BME280;33471;52.104;1.318;2023-01-31T03:27:56;102027.27;;;4.79;52.64
47706;BME280;33471;52.104;1.318;2023-01-31T03:30:30;102016.20;;;5.38;51.87
47706;BME280;33471;52.104;1.318;2023-01-31T03:33:01;102004.42;;;5.25;52.15
47706;BME280;33471;52.104;1.318;2023-01-31T03:35:34;101996.87;;;4.94;52.63
47706;BME280;33471;52.104;1.318;2023-01-31T03:38:05;101993.25;;;4.51;53.70
47706;BME280;33471;52.104;1.318;2023-01-31T03:40:40;101996.54;;;5.49;51.71
47706;BME280;33471;52.104;1.318;2023-01-31T03:43:14;102001.11;;;4.66;52.76
47706;BME280;33471;52.104;1.318;2023-01-31T03:45:50;101994.97;;;4.91;52.30
47706;BME280;33471;52.104;1.318;2023-01-31T03:48:20;101996.24;;;5.34;51.66
47706;BME280;33471;52.104;1.318;2023-01-31T03:50:52;101993.46;;;5.10;51.70
47706;BME280;33471;52.104;1.318;2023-01-31T03:53:24;101983.31;;;5.18;52.43
47706;BME280;33471;52.104;1.318;2023-01-31T03:55:57;101978.17;;;3.79;55.52
47706;BME280;33471;52.104;1.318;2023-01-31T03:58:29;101973.70;;;4.78;53.51
47706;BME280;33471;52.104;1.318;2023-01-31T04:01:00;101975.94;;;4.78;52.48
47706;BME280;33471;52.104;1.318;2023-01-31T04:03:31;101976.73;;;4.69;53.25
47706;BME280;33471;52.104;1.318;2023-01-31T04:06:00;101977.73;;;5.09;52.29
47706;BME280;33471;52.104;1.318;2023-01-31T04:08:27;101972.45;;;4.78;53.43
47706;BME280;33471;52.104;1.318;2023-01-31T04:10:57;101976.05;;;5.62;52.03
47706;BME280;33471;52.104;1.318;2023-01-31T04:13:25;101974.01;;;5.83;51.06
47706;BME280;33471;52.104;1.318;2023-01-31T04:15:52;101979.88;;;4.77;52.92
47706;BME280;33471;52.104;1.318;2023-01-31T04:18:19;101985.32;;;4.68;53.36
47706;BME280;33471;52.104;1.318;2023-01-31T04:20:47;101984.70;;;4.89;52.95
47706;BME280;33471;52.104;1.318;2023-01-31T04:23:14;101981.91;;;5.63;51.34
47706;BME280;33471;52.104;1.318;2023-01-31T04:25:41;101982.42;;;5.05;52.71
47706;BME280;33471;52.104;1.318;2023-01-31T04:28:08;101975.14;;;5.61;51.44
47706;BME280;33471;52.104;1.318;2023-01-31T04:30:36;101975.87;;;5.59;51.65
47706;BME280;33471;52.104;1.318;2023-01-31T04:33:03;101969.03;;;5.96;50.54
47706;BME280;33471;52.104;1.318;2023-01-31T04:35:30;101972.59;;;5.35;51.36
47706;BME280;33471;52.104;1.318;2023-01-31T04:37:58;101967.39;;;6.73;49.42
47706;BME280;33471;52.104;1.318;2023-01-31T04:40:24;101965.80;;;5.18;52.36
47706;BME280;33471;52.104;1.318;2023-01-31T04:42:51;101933.46;;;5.22;52.59
47706;BME280;33471;52.104;1.318;2023-01-31T04:45:18;101941.58;;;5.23;53.27
47706;BME280;33471;52.104;1.318;2023-01-31T04:47:45;101935.68;;;6.13;51.67
47706;BME280;33471;52.104;1.318;2023-01-31T04:50:13;101941.46;;;6.62;49.64
47706;BME280;33471;52.104;1.318;2023-01-31T04:52:40;101943.93;;;7.05;49.01
47706;BME280;33471;52.104;1.318;2023-01-31T04:55:08;101939.99;;;6.95;48.64
47706;BME280;33471;52.104;1.318;2023-01-31T04:57:36;101934.65;;;6.77;49.97
47706;BME280;33471;52.104;1.318;2023-01-31T05:00:04;101932.40;;;6.44;50.32
47706;BME280;33471;52.104;1.318;2023-01-31T05:02:31;101931.62;;;6.18;50.54
47706;BME280;33471;52.104;1.318;2023-01-31T05:04:58;101931.44;;;6.16;50.31
47706;BME280;33471;52.104;1.318;2023-01-31T05:07:25;101927.92;;;7.34;48.54
47706;BME280;33471;52.104;1.318;2023-01-31T05:09:53;101924.06;;;7.07;48.92
47706;BME280;33471;52.104;1.318;2023-01-31T05:12:20;101921.15;;;5.68;51.86
47706;BME280;33471;52.104;1.318;2023-01-31T05:14:47;101914.95;;;6.23;50.56
47706;BME280;33471;52.104;1.318;2023-01-31T05:17:14;101918.85;;;6.67;50.13
47706;BME280;33471;52.104;1.318;2023-01-31T05:19:42;101925.65;;;5.89;51.54
47706;BME280;33471;52.104;1.318;2023-01-31T05:22:09;101918.31;;;6.89;49.35
47706;BME280;33471;52.104;1.318;2023-01-31T05:24:36;101915.05;;;6.15;50.87
47706;BME280;33471;52.104;1.318;2023-01-31T05:27:03;101916.55;;;5.87;52.70
47706;BME280;33471;52.104;1.318;2023-01-31T05:29:31;101913.87;;;6.07;51.89
47706;BME280;33471;52.104;1.318;2023-01-31T05:32:00;101914.50;;;4.83;54.73
47706;BME280;33471;52.104;1.318;2023-01-31T05:34:27;101907.95;;;5.74;53.33
47706;BME280;33471;52.104;1.318;2023-01-31T05:36:55;101894.97;;;6.56;51.13
47706;BME280;33471;52.104;1.318;2023-01-31T05:39:22;101886.10;;;6.37;51.45
47706;BME280;33471;52.104;1.318;2023-01-31T05:41:49;101890.73;;;6.88;51.16
47706;BME280;33471;52.104;1.318;2023-01-31T05:44:16;101886.14;;;6.48;51.26
47706;BME280;33471;52.104;1.318;2023-01-31T05:46:44;101881.46;;;6.49;51.39
47706;BME280;33471;52.104;1.318;2023-01-31T05:49:12;101886.20;;;5.96;51.63
47706;BME280;33471;52.104;1.318;2023-01-31T05:51:40;101883.00;;;7.01;49.99
47706;BME280;33471;52.104;1.318;2023-01-31T05:54:09;101886.00;;;7.29;49.73
47706;BME280;33471;52.104;1.318;2023-01-31T05:56:36;101884.36;;;6.65;50.69
47706;BME280;33471;52.104;1.318;2023-01-31T05:59:03;101880.16;;;6.61;51.21
47706;BME280;33471;52.104;1.318;2023-01-31T06:01:31;101879.15;;;6.61;50.83
47706;BME280;33471;52.104;1.318;2023-01-31T06:03:58;101886.20;;;6.22;51.36
47706;BME280;33471;52.104;1.318;2023-01-31T06:06:25;101878.12;;;7.02;50.19
47706;BME280;33471;52.104;1.318;2023-01-31T06:08:52;101886.12;;;6.76;51.56
47706;BME280;33471;52.104;1.318;2023-01-31T06:11:19;101885.41;;;6.59;52.15
47706;BME280;33471;52.104;1.318;2023-01-31T06:13:46;101885.79;;;6.47;52.24
47706;BME280;33471;52.104;1.318;2023-01-31T06:16:13;101892.19;;;6.38;52.42
47706;BME280;33471;52.104;1.318;2023-01-31T06:18:41;101888.46;;;5.80;53.51
47706;BME280;33471;52.104;1.318;2023-01-31T06:21:08;101899.24;;;6.18;52.65
47706;BME280;33471;52.104;1.318;2023-01-31T06:23:35;101910.01;;;6.04;53.52
47706;BME280;33471;52.104;1.318;2023-01-31T06:26:03;101898.95;;;5.66;53.50
47706;BME280;33471;52.104;1.318;2023-01-31T06:28:30;101892.93;;;6.81;51.94
47706;BME280;33471;52.104;1.318;2023-01-31T06:30:58;101881.64;;;6.19;52.38
47706;BME280;33471;52.104;1.318;2023-01-31T06:33:25;101875.15;;;6.26;53.07
47706;BME280;33471;52.104;1.318;2023-01-31T06:35:52;101876.89;;;5.80;53.57
47706;BME280;33471;52.104;1.318;2023-01-31T06:38:24;101887.11;;;4.65;56.72
47706;BME280;33471;52.104;1.318;2023-01-31T06:40:52;101892.13;;;5.41;55.41
47706;BME280;33471;52.104;1.318;2023-01-31T06:43:18;101893.19;;;5.43;55.40
47706;BME280;33471;52.104;1.318;2023-01-31T06:45:46;101889.72;;;5.58;55.89
47706;BME280;33471;52.104;1.318;2023-01-31T06:48:14;101883.96;;;5.91;53.53
47706;BME280;33471;52.104;1.318;2023-01-31T06:50:41;101886.06;;;5.36;55.53
47706;BME280;33471;52.104;1.318;2023-01-31T06:53:09;101884.52;;;5.19;55.43
47706;BME280;33471;52.104;1.318;2023-01-31T06:55:37;101878.78;;;5.95;53.75
47706;BME280;33471;52.104;1.318;2023-01-31T06:58:04;101880.73;;;5.70;54.47
47706;BME280;33471;52.104;1.318;2023-01-31T07:00:32;101884.70;;;5.84;54.98
47706;BME280;33471;52.104;1.318;2023-01-31T07:02:59;101886.20;;;5.30;55.24
47706;BME280;33471;52.104;1.318;2023-01-31T07:05:26;101889.10;;;5.60;55.06
47706;BME280;33471;52.104;1.318;2023-01-31T07:07:53;101887.80;;;5.65;54.93
47706;BME280;33471;52.104;1.318;2023-01-31T07:10:20;101883.59;;;5.13;55.81
47706;BME280;33471;52.104;1.318;2023-01-31T07:12:48;101877.82;;;6.48;53.41
47706;BME280;33471;52.104;1.318;2023-01-31T07:15:15;101871.31;;;6.16;53.56
47706;BME280;33471;52.104;1.318;2023-01-31T07:17:42;101867.09;;;6.50;52.61
47706;BME280;33471;52.104;1.318;2023-01-31T07:20:10;101867.07;;;5.59;55.16
47706;BME280;33471;52.104;1.318;2023-01-31T07:22:37;101859.26;;;6.37;53.15
47706;BME280;33471;52.104;1.318;2023-01-31T07:25:05;101866.54;;;5.56;55.15
47706;BME280;33471;52.104;1.318;2023-01-31T07:27:32;101864.86;;;6.57;52.64
47706;BME280;33471;52.104;1.318;2023-01-31T07:30:00;101867.99;;;6.53;53.02
47706;BME280;33471;52.104;1.318;2023-01-31T07:32:28;101866.38;;;5.58;55.67
47706;BME280;33471;52.104;1.318;2023-01-31T07:34:55;101872.24;;;6.04;55.11
47706;BME280;33471;52.104;1.318;2023-01-31T07:37:23;101888.27;;;5.22;57.65
47706;BME280;33471;52.104;1.318;2023-01-31T07:39:50;101881.79;;;5.43;56.49
47706;BME280;33471;52.104;1.318;2023-01-31T07:42:17;101883.79;;;4.81;58.56
47706;BME280;33471;52.104;1.318;2023-01-31T07:44:44;101881.63;;;5.09;59.05
47706;BME280;33471;52.104;1.318;2023-01-31T07:47:11;101878.75;;;5.54;57.02
47706;BME280;33471;52.104;1.318;2023-01-31T07:49:39;101880.36;;;4.55;59.72
47706;BME280;33471;52.104;1.318;2023-01-31T07:52:06;101876.89;;;5.71;56.65
47706;BME280;33471;52.104;1.318;2023-01-31T07:54:33;101881.80;;;5.55;57.43
47706;BME280;33471;52.104;1.318;2023-01-31T07:57:00;101875.81;;;6.14;56.07
47706;BME280;33471;52.104;1.318;2023-01-31T07:59:27;101871.07;;;5.62;57.67
47706;BME280;33471;52.104;1.318;2023-01-31T08:01:54;101866.62;;;5.20;58.27
47706;BME280;33471;52.104;1.318;2023-01-31T08:04:21;101864.28;;;5.69;57.61
47706;BME280;33471;52.104;1.318;2023-01-31T08:06:49;101866.96;;;6.00;56.67
47706;BME280;33471;52.104;1.318;2023-01-31T08:09:19;101869.81;;;5.62;57.89
47706;BME280;33471;52.104;1.318;2023-01-31T08:11:46;101856.55;;;5.98;57.55
47706;BME280;33471;52.104;1.318;2023-01-31T08:14:14;101865.95;;;4.94;59.73
47706;BME280;33471;52.104;1.318;2023-01-31T08:16:41;101861.97;;;5.37;59.13
47706;BME280;33471;52.104;1.318;2023-01-31T08:19:09;101846.85;;;4.75;60.83
47706;BME280;33471;52.104;1.318;2023-01-31T08:21:36;101832.49;;;5.34;60.89
47706;BME280;33471;52.104;1.318;2023-01-31T08:24:03;101832.73;;;5.89;59.15
47706;BME280;33471;52.104;1.318;2023-01-31T08:26:30;101840.93;;;4.95;60.75
47706;BME280;33471;52.104;1.318;2023-01-31T08:28:58;101827.49;;;6.01;58.21
47706;BME280;33471;52.104;1.318;2023-01-31T08:31:26;101835.02;;;6.39;57.68
47706;BME280;33471;52.104;1.318;2023-01-31T08:33:54;101819.72;;;6.43;57.49
47706;BME280;33471;52.104;1.318;2023-01-31T08:36:23;101819.61;;;5.86;58.67
47706;BME280;33471;52.104;1.318;2023-01-31T08:38:50;101821.00;;;6.05;58.42
47706;BME280;33471;52.104;1.318;2023-01-31T08:41:20;101815.83;;;6.05;58.81
47706;BME280;33471;52.104;1.318;2023-01-31T08:43:48;101819.23;;;5.33;60.91
47706;BME280;33471;52.104;1.318;2023-01-31T08:46:15;101831.78;;;5.06;61.97
47706;BME280;33471;52.104;1.318;2023-01-31T08:48:43;101835.48;;;5.89;59.18
47706;BME280;33471;52.104;1.318;2023-01-31T08:51:11;101845.51;;;5.20;62.42
47706;BME280;33471;52.104;1.318;2023-01-31T08:53:39;101831.47;;;5.91;60.13
47706;BME280;33471;52.104;1.318;2023-01-31T08:56:07;101829.98;;;6.10;59.40
47706;BME280;33471;52.104;1.318;2023-01-31T08:58:36;101832.69;;;5.92;59.24
47706;BME280;33471;52.104;1.318;2023-01-31T09:01:07;101832.60;;;5.79;59.63
47706;BME280;33471;52.104;1.318;2023-01-31T09:03:35;101827.85;;;6.03;59.22
47706;BME280;33471;52.104;1.318;2023-01-31T09:06:05;101830.89;;;6.13;58.85
47706;BME280;33471;52.104;1.318;2023-01-31T09:08:32;101827.12;;;5.34;61.51
47706;BME280;33471;52.104;1.318;2023-01-31T09:10:59;101819.55;;;5.61;60.91
47706;BME280;33471;52.104;1.318;2023-01-31T09:13:28;101821.88;;;6.29;59.05
47706;BME280;33471;52.104;1.318;2023-01-31T09:15:58;101823.90;;;5.35;61.73
47706;BME280;33471;52.104;1.318;2023-01-31T09:18:25;101823.30;;;6.65;57.53
47706;BME280;33471;52.104;1.318;2023-01-31T09:20:53;101824.44;;;6.37;58.44
47706;BME280;33471;52.104;1.318;2023-01-31T09:23:20;101818.63;;;6.80;57.16
47706;BME280;33471;52.104;1.318;2023-01-31T09:25:52;101819.09;;;6.46;59.22
47706;BME280;33471;52.104;1.318;2023-01-31T09:28:20;101822.85;;;6.86;57.70
47706;BME280;33471;52.104;1.318;2023-01-31T09:30:47;101809.10;;;6.91;57.11
47706;BME280;33471;52.104;1.318;2023-01-31T09:33:15;101812.06;;;6.13;58.89
47706;BME280;33471;52.104;1.318;2023-01-31T09:35:42;101806.33;;;6.71;58.33
47706;BME280;33471;52.104;1.318;2023-01-31T09:38:09;101800.85;;;7.23;56.75
47706;BME280;33471;52.104;1.318;2023-01-31T09:40:38;101803.61;;;6.22;59.91
47706;BME280;33471;52.104;1.318;2023-01-31T09:43:07;101805.47;;;5.93;61.00
47706;BME280;33471;52.104;1.318;2023-01-31T09:45:39;101814.21;;;7.14;58.67
47706;BME280;33471;52.104;1.318;2023-01-31T09:48:07;101821.22;;;6.75;58.82
47706;BME280;33471;52.104;1.318;2023-01-31T09:50:41;101827.93;;;5.73;62.82
47706;BME280;33471;52.104;1.318;2023-01-31T09:53:11;101824.41;;;6.59;59.42
47706;BME280;33471;52.104;1.318;2023-01-31T09:55:47;101822.49;;;6.15;60.87
47706;BME280;33471;52.104;1.318;2023-01-31T09:58:23;101824.67;;;6.40;60.60
47706;BME280;33471;52.104;1.318;2023-01-31T10:01:10;101829.41;;;6.86;59.72
47706;BME280;33471;52.104;1.318;2023-01-31T10:03:51;101831.70;;;6.29;61.22
47706;BME280;33471;52.104;1.318;2023-01-31T10:06:24;101818.42;;;7.13;59.04
47706;BME280;33471;52.104;1.318;2023-01-31T10:08:58;101814.86;;;6.76;58.51
47706;BME280;33471;52.104;1.318;2023-01-31T10:11:33;101813.68;;;7.38;57.74
47706;BME280;33471;52.104;1.318;2023-01-31T10:14:08;101809.35;;;6.77;59.19
47706;BME280;33471;52.104;1.318;2023-01-31T10:16:44;101816.23;;;6.98;60.15
47706;BME280;33471;52.104;1.318;2023-01-31T10:19:16;101819.59;;;6.51;60.66
47706;BME280;33471;52.104;1.318;2023-01-31T10:21:50;101811.28;;;6.32;60.85
47706;BME280;33471;52.104;1.318;2023-01-31T10:24:23;101811.57;;;7.04;59.33
47706;BME280;33471;52.104;1.318;2023-01-31T10:26:59;101813.20;;;7.38;58.82
47706;BME280;33471;52.104;1.318;2023-01-31T10:29:34;101811.18;;;6.89;60.41
47706;BME280;33471;52.104;1.318;2023-01-31T10:32:04;101812.98;;;6.93;60.57
47706;BME280;33471;52.104;1.318;2023-01-31T10:34:37;101814.28;;;7.32;59.01
47706;BME280;33471;52.104;1.318;2023-01-31T10:37:11;101811.92;;;8.14;57.32
47706;BME280;33471;52.104;1.318;2023-01-31T10:39:44;101809.66;;;6.75;61.02
47706;BME280;33471;52.104;1.318;2023-01-31T10:42:19;101809.46;;;7.81;58.53
47706;BME280;33471;52.104;1.318;2023-01-31T10:44:53;101816.92;;;7.54;59.60
47706;BME280;33471;52.104;1.318;2023-01-31T10:47:25;101805.48;;;8.23;57.71
47706;BME280;33471;52.104;1.318;2023-01-31T10:49:55;101800.45;;;7.85;58.48
47706;BME280;33471;52.104;1.318;2023-01-31T10:52:35;101806.49;;;7.75;58.96
47706;BME280;33471;52.104;1.318;2023-01-31T10:55:24;101797.08;;;7.55;59.57
47706;BME280;33471;52.104;1.318;2023-01-31T10:57:53;101796.61;;;7.26;61.71
47706;BME280;33471;52.104;1.318;2023-01-31T11:00:22;101791.76;;;7.80;60.09
47706;BME280;33471;52.104;1.318;2023-01-31T11:02:52;101793.57;;;7.75;59.86
47706;BME280;33471;52.104;1.318;2023-01-31T11:05:22;101800.24;;;7.28;60.88
47706;BME280;33471;52.104;1.318;2023-01-31T11:07:50;101798.55;;;8.04;59.74
47706;BME280;33471;52.104;1.318;2023-01-31T11:10:22;101805.94;;;8.97;56.96
47706;BME280;33471;52.104;1.318;2023-01-31T11:12:54;101797.66;;;8.89;56.54
47706;BME280;33471;52.104;1.318;2023-01-31T11:15:25;101792.66;;;8.18;58.79
47706;BME280;33471;52.104;1.318;2023-01-31T11:17:57;101789.21;;;7.70;60.49
47706;BME280;33471;52.104;1.318;2023-01-31T11:20:29;101785.37;;;8.88;56.51
47706;BME280;33471;52.104;1.318;2023-01-31T11:22:58;101783.24;;;9.04;56.08
47706;BME280;33471;52.104;1.318;2023-01-31T11:25:28;101787.87;;;8.76;56.89
47706;BME280;33471;52.104;1.318;2023-01-31T11:27:59;101786.29;;;8.55;57.46
47706;BME280;33471;52.104;1.318;2023-01-31T11:30:28;101788.39;;;9.05;56.21
47706;BME280;33471;52.104;1.318;2023-01-31T11:32:57;101777.50;;;9.22;55.33
47706;BME280;33471;52.104;1.318;2023-01-31T11:35:27;101778.04;;;9.41;55.17
47706;BME280;33471;52.104;1.318;2023-01-31T11:37:56;101768.02;;;8.69;56.29
47706;BME280;33471;52.104;1.318;2023-01-31T11:40:30;101776.08;;;9.37;55.12
47706;BME280;33471;52.104;1.318;2023-01-31T11:42:59;101770.64;;;9.81;53.26
47706;BME280;33471;52.104;1.318;2023-01-31T11:45:29;101773.90;;;9.33;54.46
47706;BME280;33471;52.104;1.318;2023-01-31T11:47:58;101760.37;;;9.30;55.29
47706;BME280;33471;52.104;1.318;2023-01-31T11:50:33;101761.65;;;9.09;54.23
47706;BME280;33471;52.104;1.318;2023-01-31T11:53:12;101774.71;;;8.91;55.44
47706;BME280;33471;52.104;1.318;2023-01-31T11:55:42;101762.80;;;8.53;56.04
47706;BME280;33471;52.104;1.318;2023-01-31T11:58:17;101746.80;;;7.82;57.27
47706;BME280;33471;52.104;1.318;2023-01-31T12:00:53;101741.54;;;9.02;54.54
47706;BME280;33471;52.104;1.318;2023-01-31T12:03:22;101746.74;;;8.55;55.58
47706;BME280;33471;52.104;1.318;2023-01-31T12:05:59;101745.26;;;8.54;55.70
47706;BME280;33471;52.104;1.318;2023-01-31T12:08:30;101745.57;;;8.47;55.24
47706;BME280;33471;52.104;1.318;2023-01-31T12:11:05;101736.04;;;8.04;56.18
47706;BME280;33471;52.104;1.318;2023-01-31T12:13:45;101729.36;;;8.35;56.04
47706;BME280;33471;52.104;1.318;2023-01-31T12:16:14;101728.97;;;8.76;54.98
47706;BME280;33471;52.104;1.318;2023-01-31T12:18:53;101726.24;;;9.06;54.70
47706;BME280;33471;52.104;1.318;2023-01-31T12:21:36;101730.38;;;8.70;54.41
47706;BME280;33471;52.104;1.318;2023-01-31T12:24:13;101733.80;;;8.98;53.79
47706;BME280;33471;52.104;1.318;2023-01-31T12:26:46;101750.36;;;9.02;54.11
47706;BME280;33471;52.104;1.318;2023-01-31T12:29:33;101747.50;;;8.59;54.38
47706;BME280;33471;52.104;1.318;2023-01-31T12:32:13;101754.69;;;8.95;52.99
47706;BME280;33471;52.104;1.318;2023-01-31T12:35:03;101753.47;;;9.01;52.53
47706;BME280;33471;52.104;1.318;2023-01-31T12:37:44;101749.93;;;9.74;51.52
47706;BME280;33471;52.104;1.318;2023-01-31T12:40:32;101763.64;;;8.56;52.47
47706;BME280;33471;52.104;1.318;2023-01-31T12:43:04;101759.18;;;9.29;51.94
47706;BME280;33471;52.104;1.318;2023-01-31T12:45:51;101772.75;;;9.34;51.64
47706;BME280;33471;52.104;1.318;2023-01-31T12:48:42;101763.43;;;8.90;52.30
47706;BME280;33471;52.104;1.318;2023-01-31T12:51:21;101760.99;;;8.38;53.65
47706;BME280;33471;52.104;1.318;2023-01-31T12:54:01;101756.77;;;9.07;51.55
47706;BME280;33471;52.104;1.318;2023-01-31T12:56:42;101757.28;;;9.19;51.22
47706;BME280;33471;52.104;1.318;2023-01-31T12:59:21;101754.16;;;9.26;51.77
47706;BME280;33471;52.104;1.318;2023-01-31T13:01:56;101758.16;;;8.78;51.36
47706;BME280;33471;52.104;1.318;2023-01-31T13:04:35;101758.43;;;9.48;50.18
47706;BME280;33471;52.104;1.318;2023-01-31T13:07:08;101768.91;;;9.03;50.86
47706;BME280;33471;52.104;1.318;2023-01-31T13:09:38;101784.37;;;9.20;50.84
47706;BME280;33471;52.104;1.318;2023-01-31T13:12:08;101778.48;;;9.28;50.91
47706;BME280;33471;52.104;1.318;2023-01-31T13:14:40;101791.57;;;8.67;51.06
47706;BME280;33471;52.104;1.318;2023-01-31T13:17:12;101787.43;;;8.36;50.91
47706;BME280;33471;52.104;1.318;2023-01-31T13:19:45;101788.51;;;7.98;51.52
47706;BME280;33471;52.104;1.318;2023-01-31T13:22:19;101785.16;;;8.56;49.04
47706;BME280;33471;52.104;1.318;2023-01-31T13:24:58;101787.98;;;8.58;48.82